FDX81 YSSY-HECA
Flight info
| Callsign | FDX81 |
|---|---|
| Flight time | N/A |
| Altitude | 30000 |
| Route | KADOM A576 PKS J141 LEC T21 WENER/N0495F320 T21 PD N509 TATOD/N0498F340 N509 ELATI N640 ENSET/N0491F360 N640 KAT R461 MDI M300 KADOL/N0486F380 M300 EMURU N563 SODEX/N0498F340 N563 BOSEV/N0485F380 N563 IMGUX P699 SOGAT A453 BHR B457 NARMI J735 TAYMA N697 BPN H999 HIL N697 KITOT |
| Aircraft | B77L/H-SDE1E2E3FGHIJ2J3J4J5M1RWXY/LB1D1 |
Departure
| Time | N/A |
|---|---|
| Airport | Sydney Kingsford Smith International Airport (YSSY) |
Arrival
| Time | 2026-05-07 06:19 |
|---|---|
| Airport | Cairo International Airport (HECA) |
| Time | Latitude | Longitude | Altitude | Speed | Heading |
|---|---|---|---|---|---|
| 2026-05-07 04:30 | 27.17132 | 44.36847 | 37997 ft | 416 kts | 271° |
| 2026-05-07 04:30 | 27.17469 | 44.33602 | 37997 ft | 416 kts | 270° |
| 2026-05-07 04:31 | 27.18133 | 44.27180 | 37992 ft | 416 kts | 270° |
| 2026-05-07 04:31 | 27.18798 | 44.20730 | 38001 ft | 416 kts | 270° |
| 2026-05-07 04:32 | 27.19459 | 44.14280 | 38002 ft | 415 kts | 270° |
| 2026-05-07 04:32 | 27.20117 | 44.07838 | 37993 ft | 415 kts | 270° |
| 2026-05-07 04:33 | 27.20662 | 44.02478 | 38004 ft | 415 kts | 270° |
| 2026-05-07 04:33 | 27.21421 | 43.94977 | 38000 ft | 416 kts | 270° |
| 2026-05-07 04:34 | 27.21965 | 43.89578 | 38007 ft | 416 kts | 270° |
| 2026-05-07 04:34 | 27.22613 | 43.83113 | 38005 ft | 416 kts | 270° |
| 2026-05-07 04:35 | 27.23260 | 43.76641 | 38004 ft | 416 kts | 270° |
| 2026-05-07 04:35 | 27.23899 | 43.70220 | 38000 ft | 416 kts | 270° |
| 2026-05-07 04:36 | 27.24540 | 43.63756 | 38011 ft | 416 kts | 270° |
| 2026-05-07 04:36 | 27.25180 | 43.57288 | 38003 ft | 416 kts | 270° |
| 2026-05-07 04:37 | 27.25818 | 43.50818 | 38017 ft | 416 kts | 270° |
| 2026-05-07 04:37 | 27.26453 | 43.44343 | 38020 ft | 417 kts | 270° |
| 2026-05-07 04:38 | 27.27086 | 43.37854 | 38020 ft | 418 kts | 270° |
| 2026-05-07 04:38 | 27.27712 | 43.31409 | 38020 ft | 416 kts | 270° |
| 2026-05-07 04:39 | 27.28338 | 43.24936 | 38030 ft | 416 kts | 270° |
| 2026-05-07 04:39 | 27.28960 | 43.18466 | 38033 ft | 416 kts | 270° |
| 2026-05-07 04:40 | 27.29579 | 43.11990 | 38038 ft | 417 kts | 270° |
| 2026-05-07 04:40 | 27.30196 | 43.05510 | 38040 ft | 416 kts | 270° |
| 2026-05-07 04:41 | 27.30810 | 42.99035 | 38044 ft | 415 kts | 270° |
| 2026-05-07 04:41 | 27.31415 | 42.92623 | 38039 ft | 414 kts | 270° |
| 2026-05-07 04:42 | 27.32022 | 42.86146 | 38044 ft | 413 kts | 270° |
| 2026-05-07 04:42 | 27.32620 | 42.79734 | 38052 ft | 413 kts | 270° |
| 2026-05-07 04:43 | 27.33214 | 42.73335 | 38053 ft | 414 kts | 270° |
| 2026-05-07 04:43 | 27.33810 | 42.66887 | 38056 ft | 414 kts | 270° |
| 2026-05-07 04:44 | 27.34403 | 42.60437 | 38057 ft | 415 kts | 270° |
| 2026-05-07 04:44 | 27.34993 | 42.53985 | 38059 ft | 414 kts | 270° |
| 2026-05-07 04:45 | 27.35581 | 42.47538 | 38058 ft | 413 kts | 270° |
| 2026-05-07 04:45 | 27.36162 | 42.41107 | 38069 ft | 413 kts | 270° |
| 2026-05-07 04:46 | 27.36734 | 42.34707 | 38064 ft | 414 kts | 270° |
| 2026-05-07 04:46 | 27.37307 | 42.28262 | 38067 ft | 415 kts | 270° |
| 2026-05-07 04:47 | 27.37879 | 42.21799 | 38064 ft | 414 kts | 270° |
| 2026-05-07 04:47 | 27.38447 | 42.15356 | 38065 ft | 414 kts | 270° |
| 2026-05-07 04:48 | 27.39012 | 42.08917 | 38064 ft | 413 kts | 270° |
| 2026-05-07 04:48 | 27.39573 | 42.02465 | 38068 ft | 414 kts | 269° |
| 2026-05-07 04:49 | 27.40128 | 41.96055 | 38071 ft | 414 kts | 269° |
| 2026-05-07 04:49 | 27.40684 | 41.89607 | 38081 ft | 414 kts | 269° |
| 2026-05-07 04:50 | 27.41239 | 41.83151 | 38077 ft | 413 kts | 269° |
| 2026-05-07 04:50 | 27.41788 | 41.76700 | 38079 ft | 414 kts | 269° |
| 2026-05-07 04:51 | 27.42341 | 41.70233 | 38074 ft | 415 kts | 270° |
| 2026-05-07 04:51 | 27.43386 | 41.63799 | 38077 ft | 420 kts | 276° |
| 2026-05-07 04:52 | 27.44713 | 41.57439 | 38083 ft | 419 kts | 276° |
| 2026-05-07 04:52 | 27.46035 | 41.51036 | 38081 ft | 419 kts | 276° |
| 2026-05-07 04:53 | 27.47345 | 41.44638 | 38075 ft | 419 kts | 276° |
| 2026-05-07 04:53 | 27.48647 | 41.38249 | 38074 ft | 418 kts | 276° |
| 2026-05-07 04:54 | 27.49942 | 41.31859 | 38061 ft | 418 kts | 275° |
| 2026-05-07 04:54 | 27.51225 | 41.25514 | 38055 ft | 418 kts | 276° |
| 2026-05-07 04:55 | 27.52517 | 41.19123 | 38047 ft | 418 kts | 275° |
| 2026-05-07 04:55 | 27.53804 | 41.12735 | 38042 ft | 418 kts | 275° |
| 2026-05-07 04:56 | 27.55088 | 41.06346 | 38033 ft | 417 kts | 275° |
| 2026-05-07 04:56 | 27.56369 | 40.99958 | 38029 ft | 417 kts | 275° |
| 2026-05-07 04:57 | 27.57636 | 40.93623 | 38022 ft | 417 kts | 275° |
| 2026-05-07 04:57 | 27.58905 | 40.87257 | 38036 ft | 416 kts | 275° |
| 2026-05-07 04:58 | 27.60171 | 40.80891 | 38017 ft | 416 kts | 275° |
| 2026-05-07 04:58 | 27.61435 | 40.74514 | 38028 ft | 417 kts | 275° |
| 2026-05-07 04:59 | 27.62696 | 40.68139 | 38033 ft | 416 kts | 275° |
| 2026-05-07 04:59 | 27.63953 | 40.61767 | 38027 ft | 416 kts | 275° |
| 2026-05-07 05:00 | 27.65204 | 40.55410 | 38035 ft | 415 kts | 275° |
| 2026-05-07 05:00 | 27.66453 | 40.49045 | 38030 ft | 415 kts | 275° |
| 2026-05-07 05:01 | 27.67697 | 40.42693 | 38034 ft | 415 kts | 275° |
| 2026-05-07 05:01 | 27.68931 | 40.36366 | 38034 ft | 416 kts | 275° |
| 2026-05-07 05:02 | 27.70172 | 40.29991 | 38035 ft | 415 kts | 275° |
| 2026-05-07 05:02 | 27.71411 | 40.23623 | 38029 ft | 415 kts | 275° |
| 2026-05-07 05:03 | 27.72647 | 40.17249 | 38033 ft | 415 kts | 275° |
| 2026-05-07 05:03 | 27.73879 | 40.10879 | 38035 ft | 415 kts | 275° |
| 2026-05-07 05:04 | 27.75107 | 40.04498 | 38041 ft | 416 kts | 275° |
| 2026-05-07 05:04 | 27.76327 | 39.98151 | 38035 ft | 416 kts | 275° |
| 2026-05-07 05:05 | 27.77551 | 39.91776 | 38040 ft | 415 kts | 275° |
| 2026-05-07 05:05 | 27.78774 | 39.85378 | 38032 ft | 416 kts | 275° |
| 2026-05-07 05:06 | 27.79996 | 39.78966 | 38035 ft | 418 kts | 275° |
| 2026-05-07 05:06 | 27.81211 | 39.72579 | 38025 ft | 418 kts | 275° |
| 2026-05-07 05:07 | 27.82431 | 39.66157 | 38027 ft | 418 kts | 275° |
| 2026-05-07 05:07 | 27.83648 | 39.59730 | 38029 ft | 418 kts | 275° |
| 2026-05-07 05:08 | 27.84861 | 39.53300 | 38033 ft | 419 kts | 275° |
| 2026-05-07 05:08 | 27.86074 | 39.46851 | 38032 ft | 420 kts | 275° |
| 2026-05-07 05:09 | 27.87288 | 39.40388 | 38027 ft | 420 kts | 274° |
| 2026-05-07 05:09 | 27.88498 | 39.33925 | 38021 ft | 420 kts | 274° |
| 2026-05-07 05:10 | 27.89704 | 39.27469 | 38012 ft | 420 kts | 274° |
| 2026-05-07 05:10 | 27.90898 | 39.21055 | 38020 ft | 420 kts | 274° |
| 2026-05-07 05:11 | 27.92099 | 39.14587 | 38010 ft | 420 kts | 274° |
| 2026-05-07 05:11 | 27.93326 | 39.08123 | 38012 ft | 423 kts | 276° |
| 2026-05-07 05:12 | 27.95037 | 39.01713 | 38015 ft | 426 kts | 279° |
| 2026-05-07 05:12 | 27.96833 | 38.95325 | 38018 ft | 426 kts | 279° |
| 2026-05-07 05:13 | 27.98618 | 38.88933 | 38017 ft | 426 kts | 279° |
| 2026-05-07 05:13 | 28.00379 | 38.82581 | 38023 ft | 426 kts | 279° |
| 2026-05-07 05:14 | 28.02144 | 38.76183 | 38026 ft | 426 kts | 279° |
| 2026-05-07 05:14 | 28.03910 | 38.69767 | 38029 ft | 427 kts | 279° |
| 2026-05-07 05:15 | 28.05676 | 38.63340 | 38029 ft | 428 kts | 279° |
| 2026-05-07 05:15 | 28.07448 | 38.56875 | 38031 ft | 431 kts | 279° |
| 2026-05-07 05:16 | 28.09227 | 38.50374 | 38024 ft | 433 kts | 279° |
| 2026-05-07 05:16 | 28.11004 | 38.43874 | 38024 ft | 432 kts | 279° |
| 2026-05-07 05:17 | 28.12779 | 38.37366 | 38022 ft | 431 kts | 279° |
| 2026-05-07 05:17 | 28.14535 | 38.30913 | 38027 ft | 431 kts | 279° |
| 2026-05-07 05:18 | 28.16302 | 38.24402 | 38028 ft | 432 kts | 279° |
| 2026-05-07 05:18 | 28.18067 | 38.17887 | 38035 ft | 433 kts | 279° |
| 2026-05-07 05:19 | 28.19829 | 38.11368 | 38036 ft | 433 kts | 279° |
| 2026-05-07 05:19 | 28.21591 | 38.04839 | 38032 ft | 432 kts | 279° |
| 2026-05-07 05:20 | 28.23348 | 37.98312 | 38045 ft | 433 kts | 279° |
| 2026-05-07 05:20 | 28.25094 | 37.91812 | 38045 ft | 433 kts | 279° |
| 2026-05-07 05:21 | 28.27727 | 37.81986 | 38047 ft | 434 kts | 278° |
| 2026-05-07 05:22 | 28.29479 | 37.75429 | 38046 ft | 434 kts | 279° |
| 2026-05-07 05:22 | 28.30932 | 37.69979 | 38040 ft | 434 kts | 279° |
| 2026-05-07 05:23 | 28.32965 | 37.62344 | 38047 ft | 434 kts | 278° |
| 2026-05-07 05:23 | 28.34707 | 37.55781 | 38050 ft | 435 kts | 279° |
| 2026-05-07 05:24 | 28.36167 | 37.50274 | 38040 ft | 435 kts | 279° |
| 2026-05-07 05:24 | 28.37897 | 37.43734 | 38048 ft | 434 kts | 279° |
| 2026-05-07 05:25 | 28.39632 | 37.37160 | 38040 ft | 435 kts | 279° |
| 2026-05-07 05:25 | 28.41363 | 37.30586 | 38041 ft | 435 kts | 279° |
| 2026-05-07 05:26 | 28.43100 | 37.23975 | 38048 ft | 436 kts | 279° |
| 2026-05-07 05:26 | 28.44824 | 37.17402 | 38047 ft | 437 kts | 279° |
| 2026-05-07 05:27 | 28.46555 | 37.10792 | 38045 ft | 436 kts | 279° |
| 2026-05-07 05:27 | 28.48281 | 37.04178 | 38040 ft | 437 kts | 279° |
| 2026-05-07 05:28 | 28.50008 | 36.97546 | 38036 ft | 437 kts | 279° |
| 2026-05-07 05:28 | 28.51739 | 36.90914 | 38042 ft | 438 kts | 279° |
| 2026-05-07 05:29 | 28.53484 | 36.84274 | 38038 ft | 438 kts | 279° |
| 2026-05-07 05:29 | 28.55206 | 36.77662 | 38045 ft | 439 kts | 279° |
| 2026-05-07 05:30 | 28.56925 | 36.70990 | 38042 ft | 439 kts | 279° |
| 2026-05-07 05:30 | 28.58644 | 36.64312 | 38038 ft | 439 kts | 279° |
| 2026-05-07 05:31 | 28.60360 | 36.57640 | 38041 ft | 439 kts | 279° |
| 2026-05-07 05:31 | 28.62081 | 36.50954 | 38040 ft | 441 kts | 279° |
| 2026-05-07 05:32 | 28.63810 | 36.44245 | 38038 ft | 442 kts | 279° |
| 2026-05-07 05:32 | 28.65538 | 36.37523 | 38048 ft | 442 kts | 279° |
| 2026-05-07 05:33 | 28.67262 | 36.30800 | 38039 ft | 442 kts | 279° |
| 2026-05-07 05:33 | 28.68982 | 36.24074 | 38048 ft | 442 kts | 279° |
| 2026-05-07 05:34 | 28.70688 | 36.17383 | 38047 ft | 444 kts | 279° |
| 2026-05-07 05:34 | 28.72399 | 36.10616 | 38048 ft | 444 kts | 279° |
| 2026-05-07 05:35 | 28.74106 | 36.03838 | 38051 ft | 445 kts | 279° |
| 2026-05-07 05:35 | 28.75813 | 35.97053 | 38054 ft | 445 kts | 279° |
| 2026-05-07 05:36 | 28.77517 | 35.90259 | 38053 ft | 446 kts | 280° |
| 2026-05-07 05:36 | 28.79221 | 35.83453 | 38050 ft | 446 kts | 280° |
| 2026-05-07 05:37 | 28.80912 | 35.76688 | 38055 ft | 446 kts | 280° |
| 2026-05-07 05:37 | 28.82606 | 35.69891 | 38045 ft | 446 kts | 280° |
| 2026-05-07 05:38 | 28.84301 | 35.63072 | 38054 ft | 447 kts | 280° |
| 2026-05-07 05:38 | 28.85998 | 35.56228 | 38052 ft | 449 kts | 280° |
| 2026-05-07 05:39 | 28.87696 | 35.49365 | 38037 ft | 449 kts | 280° |
| 2026-05-07 05:39 | 28.89380 | 35.42551 | 38055 ft | 448 kts | 280° |
| 2026-05-07 05:40 | 28.91074 | 35.35668 | 38028 ft | 450 kts | 280° |
| 2026-05-07 05:40 | 28.92765 | 35.28784 | 38015 ft | 450 kts | 280° |
| 2026-05-07 05:41 | 28.94452 | 35.21911 | 38016 ft | 448 kts | 280° |
| 2026-05-07 05:41 | 28.96116 | 35.15103 | 38026 ft | 449 kts | 280° |
| 2026-05-07 05:42 | 28.97793 | 35.08223 | 38011 ft | 450 kts | 280° |
| 2026-05-07 05:42 | 28.99472 | 35.01323 | 38020 ft | 451 kts | 281° |
| 2026-05-07 05:43 | 29.01151 | 34.94408 | 38018 ft | 451 kts | 281° |
| 2026-05-07 05:43 | 29.02828 | 34.87482 | 38004 ft | 452 kts | 281° |
| 2026-05-07 05:44 | 29.04491 | 34.80606 | 38006 ft | 452 kts | 281° |
| 2026-05-07 05:44 | 29.06163 | 34.73687 | 38013 ft | 452 kts | 281° |
| 2026-05-07 05:45 | 29.07838 | 34.66748 | 38018 ft | 452 kts | 281° |
| 2026-05-07 05:45 | 29.09516 | 34.59800 | 38024 ft | 453 kts | 281° |
| 2026-05-07 05:46 | 29.11195 | 34.52846 | 38041 ft | 454 kts | 281° |
| 2026-05-07 05:46 | 29.12875 | 34.45872 | 38043 ft | 455 kts | 281° |
| 2026-05-07 05:47 | 29.14548 | 34.38927 | 38041 ft | 455 kts | 281° |
| 2026-05-07 05:47 | 29.16231 | 34.31927 | 38042 ft | 455 kts | 281° |
| 2026-05-07 05:48 | 29.17900 | 34.24976 | 38066 ft | 456 kts | 281° |
| 2026-05-07 05:48 | 29.19580 | 34.17975 | 38069 ft | 456 kts | 281° |
| 2026-05-07 05:49 | 29.21260 | 34.10972 | 38073 ft | 456 kts | 281° |
| 2026-05-07 05:49 | 29.22940 | 34.03964 | 38074 ft | 456 kts | 281° |
| 2026-05-07 05:50 | 29.24620 | 33.96953 | 38080 ft | 457 kts | 281° |
| 2026-05-07 05:50 | 29.26304 | 33.89913 | 38077 ft | 458 kts | 282° |
| 2026-05-07 05:51 | 29.27984 | 33.82879 | 38082 ft | 458 kts | 282° |
| 2026-05-07 05:51 | 29.29654 | 33.75884 | 38089 ft | 458 kts | 282° |
| 2026-05-07 05:52 | 29.31335 | 33.68834 | 38086 ft | 459 kts | 282° |
| 2026-05-07 05:52 | 29.33016 | 33.61779 | 38084 ft | 459 kts | 282° |
| 2026-05-07 05:53 | 29.34701 | 33.54701 | 38088 ft | 460 kts | 282° |
| 2026-05-07 05:53 | 29.36381 | 33.47635 | 38089 ft | 459 kts | 282° |
| 2026-05-07 05:54 | 29.38064 | 33.40552 | 38091 ft | 460 kts | 282° |
| 2026-05-07 05:54 | 29.39746 | 33.33468 | 38093 ft | 461 kts | 282° |
| 2026-05-07 05:55 | 29.41417 | 33.26422 | 38076 ft | 460 kts | 283° |
| 2026-05-07 05:55 | 29.42251 | 33.22907 | 37923 ft | 454 kts | 283° |
| 2026-05-07 05:55 | 29.43074 | 33.19446 | 37482 ft | 448 kts | 283° |
| 2026-05-07 05:55 | 29.43897 | 33.15984 | 36583 ft | 452 kts | 283° |
| 2026-05-07 05:56 | 29.44729 | 33.12476 | 35542 ft | 460 kts | 284° |
| 2026-05-07 05:56 | 29.45576 | 33.08893 | 34565 ft | 467 kts | 284° |
| 2026-05-07 05:56 | 29.46427 | 33.05287 | 33656 ft | 469 kts | 285° |
| 2026-05-07 05:56 | 29.47301 | 33.01643 | 32378 ft | 477 kts | 286° |
| 2026-05-07 05:57 | 29.48306 | 32.97987 | 31385 ft | 480 kts | 288° |
| 2026-05-07 05:57 | 29.49391 | 32.94360 | 30623 ft | 478 kts | 289° |
| 2026-05-07 05:57 | 29.50478 | 32.90832 | 30088 ft | 471 kts | 289° |
| 2026-05-07 05:57 | 29.51570 | 32.87294 | 29190 ft | 470 kts | 289° |
| 2026-05-07 05:58 | 29.52649 | 32.83762 | 28396 ft | 467 kts | 289° |
| 2026-05-07 05:58 | 29.53710 | 32.80250 | 27697 ft | 464 kts | 289° |
| 2026-05-07 05:58 | 29.54753 | 32.76764 | 27058 ft | 459 kts | 289° |
| 2026-05-07 05:58 | 29.55778 | 32.73317 | 26485 ft | 454 kts | 288° |
| 2026-05-07 05:59 | 29.56790 | 32.69901 | 25918 ft | 449 kts | 288° |
| 2026-05-07 05:59 | 29.57786 | 32.66530 | 25459 ft | 442 kts | 288° |
| 2026-05-07 05:59 | 29.58768 | 32.63203 | 24913 ft | 438 kts | 288° |
| 2026-05-07 05:59 | 29.59743 | 32.59900 | 24333 ft | 435 kts | 288° |
| 2026-05-07 06:00 | 29.60709 | 32.56621 | 23786 ft | 432 kts | 288° |
| 2026-05-07 06:00 | 29.61669 | 32.53359 | 23183 ft | 429 kts | 288° |
| 2026-05-07 06:00 | 29.62622 | 32.50121 | 22585 ft | 425 kts | 288° |
| 2026-05-07 06:00 | 29.63563 | 32.46921 | 22048 ft | 421 kts | 288° |
| 2026-05-07 06:01 | 29.64496 | 32.43743 | 21484 ft | 417 kts | 288° |
| 2026-05-07 06:01 | 29.65421 | 32.40593 | 20838 ft | 416 kts | 288° |
| 2026-05-07 06:01 | 29.66343 | 32.37447 | 20230 ft | 415 kts | 288° |
| 2026-05-07 06:01 | 29.67251 | 32.34348 | 19616 ft | 414 kts | 288° |
| 2026-05-07 06:02 | 29.68170 | 32.31206 | 18965 ft | 413 kts | 288° |
| 2026-05-07 06:02 | 29.69085 | 32.28078 | 18319 ft | 413 kts | 288° |
| 2026-05-07 06:02 | 29.69994 | 32.24965 | 17688 ft | 410 kts | 288° |
| 2026-05-07 06:02 | 29.70897 | 32.21869 | 17095 ft | 406 kts | 288° |
| 2026-05-07 06:03 | 29.71794 | 32.18790 | 16500 ft | 404 kts | 288° |
| 2026-05-07 06:03 | 29.72679 | 32.15748 | 16023 ft | 398 kts | 288° |
| 2026-05-07 06:03 | 29.73549 | 32.12756 | 15571 ft | 391 kts | 288° |
| 2026-05-07 06:03 | 29.74407 | 32.09806 | 15139 ft | 385 kts | 289° |
| 2026-05-07 06:04 | 29.75249 | 32.06907 | 14744 ft | 379 kts | 289° |
| 2026-05-07 06:04 | 29.76078 | 32.04048 | 14304 ft | 374 kts | 289° |
| 2026-05-07 06:04 | 29.76898 | 32.01219 | 13782 ft | 372 kts | 289° |
| 2026-05-07 06:04 | 29.77713 | 31.98406 | 13160 ft | 371 kts | 289° |
| 2026-05-07 06:05 | 29.78526 | 31.95592 | 12565 ft | 369 kts | 289° |
| 2026-05-07 06:05 | 29.79338 | 31.92781 | 11929 ft | 370 kts | 290° |
| 2026-05-07 06:05 | 29.80137 | 31.90012 | 11346 ft | 369 kts | 290° |
| 2026-05-07 06:05 | 29.80941 | 31.87225 | 10970 ft | 362 kts | 290° |
| 2026-05-07 06:06 | 29.81719 | 31.84527 | 10805 ft | 348 kts | 290° |
| 2026-05-07 06:06 | 29.82469 | 31.81925 | 10649 ft | 336 kts | 290° |
| 2026-05-07 06:06 | 29.83190 | 31.79420 | 10494 ft | 324 kts | 290° |
| 2026-05-07 06:06 | 29.83882 | 31.77002 | 10365 ft | 312 kts | 291° |
| 2026-05-07 06:07 | 29.84552 | 31.74668 | 10219 ft | 300 kts | 291° |
| 2026-05-07 06:07 | 29.85195 | 31.72427 | 10096 ft | 289 kts | 291° |
| 2026-05-07 06:07 | 29.85821 | 31.70241 | 9789 ft | 285 kts | 291° |
| 2026-05-07 06:07 | 29.86430 | 31.68119 | 9468 ft | 280 kts | 291° |
| 2026-05-07 06:08 | 29.87038 | 31.66002 | 9160 ft | 276 kts | 291° |
| 2026-05-07 06:08 | 29.87634 | 31.63922 | 8853 ft | 271 kts | 291° |
| 2026-05-07 06:08 | 29.88222 | 31.61877 | 8557 ft | 267 kts | 291° |
| 2026-05-07 06:08 | 29.88799 | 31.59864 | 8276 ft | 262 kts | 291° |
| 2026-05-07 06:09 | 29.89363 | 31.57885 | 7977 ft | 258 kts | 291° |
| 2026-05-07 06:09 | 29.89922 | 31.55935 | 7701 ft | 254 kts | 291° |
| 2026-05-07 06:09 | 29.90477 | 31.53996 | 7431 ft | 256 kts | 291° |
| 2026-05-07 06:09 | 29.91034 | 31.52029 | 7134 ft | 260 kts | 291° |
| 2026-05-07 06:10 | 29.91604 | 31.50035 | 6862 ft | 263 kts | 291° |
| 2026-05-07 06:10 | 29.92177 | 31.48029 | 6567 ft | 262 kts | 291° |
| 2026-05-07 06:10 | 29.92742 | 31.46045 | 6245 ft | 259 kts | 291° |
| 2026-05-07 06:10 | 29.93296 | 31.44093 | 5939 ft | 253 kts | 291° |
| 2026-05-07 06:11 | 29.93840 | 31.42179 | 5677 ft | 250 kts | 291° |
| 2026-05-07 06:11 | 29.94388 | 31.40255 | 5333 ft | 256 kts | 291° |
| 2026-05-07 06:11 | 29.94952 | 31.38273 | 5008 ft | 262 kts | 291° |
| 2026-05-07 06:11 | 29.95520 | 31.36270 | 4703 ft | 263 kts | 291° |
| 2026-05-07 06:12 | 29.96087 | 31.34270 | 4375 ft | 260 kts | 291° |
| 2026-05-07 06:12 | 29.96640 | 31.32319 | 4105 ft | 260 kts | 291° |
| 2026-05-07 06:12 | 29.97193 | 31.30364 | 3927 ft | 252 kts | 291° |
| 2026-05-07 06:12 | 29.97553 | 31.29087 | 3859 ft | 242 kts | 292° |
| 2026-05-07 06:13 | 29.98213 | 31.26744 | 3721 ft | 223 kts | 291° |
| 2026-05-07 06:13 | 29.98678 | 31.25091 | 3594 ft | 210 kts | 292° |
| 2026-05-07 06:13 | 29.98986 | 31.24042 | 3554 ft | 197 kts | 300° |
| 2026-05-07 06:13 | 29.99830 | 31.22982 | 3499 ft | 178 kts | 340° |
| 2026-05-07 06:14 | 30.01178 | 31.22719 | 3608 ft | 221 kts | 8° |
| 2026-05-07 06:14 | 30.02597 | 31.23451 | 3519 ft | 228 kts | 44° |
| 2026-05-07 06:14 | 30.03474 | 31.24950 | 3315 ft | 224 kts | 60° |
| 2026-05-07 06:14 | 30.04148 | 31.26540 | 2812 ft | 223 kts | 63° |
| 2026-05-07 06:15 | 30.04780 | 31.28118 | 2613 ft | 217 kts | 69° |
| 2026-05-07 06:15 | 30.04942 | 31.29826 | 2311 ft | 211 kts | 94° |
| 2026-05-07 06:15 | 30.04488 | 31.31384 | 1904 ft | 199 kts | 112° |
| 2026-05-07 06:15 | 30.03966 | 31.32782 | 1687 ft | 180 kts | 106° |
| 2026-05-07 06:16 | 30.03655 | 31.34066 | 1587 ft | 144 kts | 81° |
| 2026-05-07 06:16 | 30.04013 | 31.34961 | 1281 ft | 128 kts | 46° |
| 2026-05-07 06:16 | 30.04676 | 31.35684 | 975 ft | 132 kts | 40° |
| 2026-05-07 06:16 | 30.05398 | 31.36390 | 1147 ft | 132 kts | 40° |
| 2026-05-07 06:17 | 30.06110 | 31.37205 | 1221 ft | 159 kts | 45° |
| 2026-05-07 06:17 | 30.06860 | 31.38111 | 1237 ft | 149 kts | 46° |
| 2026-05-07 06:17 | 30.07547 | 31.38989 | 1165 ft | 150 kts | 46° |
| 2026-05-07 06:17 | 30.08245 | 31.39928 | 1000 ft | 157 kts | 49° |
| 2026-05-07 06:18 | 30.08946 | 31.40890 | 778 ft | 157 kts | 49° |
| 2026-05-07 06:18 | 30.09650 | 31.41828 | 537 ft | 149 kts | 47° |
| 2026-05-07 06:18 | 30.10276 | 31.42651 | 468 ft | 121 kts | 46° |
| 2026-05-07 06:18 | 30.10747 | 31.43271 | 467 ft | 70 kts | 50° |
| 2026-05-07 06:19 | 30.11100 | 31.43573 | 462 ft | 44 kts | 21° |
| 2026-05-07 06:19 | 30.11228 | 31.43507 | 453 ft | 21 kts | 285° |
| 2026-05-07 06:19 | 30.11363 | 31.43309 | 432 ft | 43 kts | 319° |
| 2026-05-07 06:19 | 30.11630 | 31.43056 | 408 ft | 52 kts | 322° |
| 2026-05-07 06:20 | 30.11900 | 31.42781 | 393 ft | 52 kts | 318° |
| 2026-05-07 06:20 | 30.12119 | 31.42558 | 383 ft | 41 kts | 319° |
| 2026-05-07 06:20 | 30.12182 | 31.42374 | 375 ft | 13 kts | 227° |
| 2026-05-07 06:20 | 30.12094 | 31.42255 | 375 ft | 30 kts | 231° |
| 2026-05-07 06:21 | 30.11919 | 31.42009 | 374 ft | 47 kts | 230° |
| 2026-05-07 06:21 | 30.11705 | 31.41733 | 378 ft | 45 kts | 228° |
| 2026-05-07 06:21 | 30.11506 | 31.41468 | 379 ft | 42 kts | 227° |
| 2026-05-07 06:21 | 30.11415 | 31.41274 | 376 ft | 16 kts | 300° |
| 2026-05-07 06:22 | 30.11520 | 31.41232 | 365 ft | 18 kts | 347° |
| 2026-05-07 06:22 | 30.11777 | 31.41098 | 353 ft | 6 kts | 258° |
| 2026-05-07 06:22 | 30.11762 | 31.41043 | 353 ft | 8 kts | 252° |
| 2026-05-07 06:23 | 30.11746 | 31.40982 | 348 ft | 0 kts | 253° |